EDT,Max TemperatureF,Mean TemperatureF,Min TemperatureF,Max Dew PointF,MeanDew PointF,Min DewpointF,Max Humidity, Mean Humidity, Min Humidity, Max Sea Level PressureIn, Mean Sea Level PressureIn, Min Sea Level PressureIn, Max VisibilityMiles, Mean VisibilityMiles, Min VisibilityMiles, Max Wind SpeedMPH, Mean Wind SpeedMPH, Max Gust SpeedMPH,PrecipitationIn, CloudCover, Events, WindDirDegrees
2012-10-1,65,56,46,54,48,44,100,78,56,29.94,29.84,29.74,10,8,2,18,9,23,0.72,7,Rain,65
2012-10-2,65,60,54,63,59,53,100,97,93,29.92,29.79,29.71,10,4,0,13,6,16,0.47,8,Fog-Rain,38
2012-10-3,69,63,57,61,56,53,100,80,59,30.14,30.04,29.91,10,9,3,17,9,21,T,7,,198
2012-10-4,76,66,56,57,54,53,93,70,46,30.20,30.16,30.13,10,10,7,22,10,28,0.01,2,Rain,211
2012-10-5,69,56,42,57,50,41,100,84,67,30.15,30.08,30.01,10,8,4,23,8,28,0.57,6,Rain,313
2012-10-6,56,47,37,41,36,31,96,67,38,30.17,30.11,30.04,10,10,3,15,9,21,0.05,5,Rain,297
2012-10-7,49,43,36,37,34,30,82,69,56,30.22,30.17,30.13,10,10,10,14,6,17,T,7,Rain,288
2012-10-8,53,43,33,36,31,27,82,62,41,30.28,30.22,30.16,10,10,10,12,4,18,0.00,2,,208
2012-10-9,59,49,38,42,39,37,100,72,44,30.19,30.10,29.96,10,9,4,15,9,22,0.00,1,,183
2012-10-10,55,45,35,45,36,27,80,61,42,30.26,30.06,29.91,10,10,10,26,13,33,0.02,3,Rain,266
2012-10-11,58,46,33,34,31,28,82,60,38,30.32,30.24,30.17,10,10,10,17,8,23,0.00,1,,220
2012-10-12,57,49,41,41,32,25,89,60,30,30.42,30.34,30.20,10,10,10,21,8,25,T,3,,44
2012-10-13,69,54,38,61,44,28,81,68,55,30.36,30.20,30.01,10,10,10,20,11,29,T,5,,164
2012-10-14,71,64,56,61,58,53,93,80,66,29.99,29.83,29.66,10,10,7,33,18,46,0.33,7,Rain,196
2012-10-15,57,49,40,52,45,38,89,75,61,29.99,29.87,29.78,10,10,8,24,11,32,T,7,Rain,283
2012-10-16,62,49,36,42,39,35,92,69,46,30.04,29.94,29.82,10,9,6,14,6,20,0.00,2,,191
2012-10-17,73,62,51,49,46,41,72,57,41,29.81,29.73,29.57,10,10,10,23,12,31,T,6,,165
2012-10-18,64,56,48,52,41,29,89,59,29,29.71,29.61,29.48,10,10,3,35,16,43,0.10,5,Rain,207
2012-10-19,54,50,46,45,40,34,93,72,50,29.70,29.64,29.59,10,9,4,21,10,24,0.13,7,Rain,203
2012-10-20,56,50,43,45,42,38,93,74,55,30.01,29.82,29.71,10,10,9,23,10,30,0.08,7,Rain,252
2012-10-21,63,50,37,47,43,39,100,78,56,30.16,30.10,30.01,10,9,5,10,6,16,0.00,0,,183
2012-10-22,73,61,48,55,50,44,86,70,53,30.14,30.09,30.03,10,10,10,16,8,21,0.00,5,,174
2012-10-23,76,69,61,54,51,48,63,55,46,30.09,30.03,29.99,10,10,9,23,10,31,0.03,7,Rain-Thunderstorm,205
2012-10-24,77,69,60,58,54,51,84,64,43,30.11,30.06,30.02,10,10,10,17,9,22,T,3,,186
2012-10-25,76,64,52,56,52,46,83,65,46,30.06,30.00,29.94,10,10,10,23,11,29,0.00,1,,183
2012-10-26,66,55,43,54,46,42,100,82,63,30.19,30.13,29.95,10,6,1,24,13,29,1.07,7,Rain,349
2012-10-27,52,47,41,43,39,37,100,80,59,30.17,30.13,30.09,10,9,4,22,13,25,0.04,7,Rain,11
2012-10-28,48,45,41,36,34,29,79,68,57,30.14,30.09,30.05,10,10,10,26,17,32,0.00,8,,6
2012-10-29,43,40,36,34,30,22,89,66,43,30.07,29.96,29.73,10,10,5,37,23,46,T,8,Rain-Snow,340
2012-10-30,40,37,34,38,34,24,100,76,51,29.69,29.56,29.49,10,4,1,37,20,45,0.12,8,Rain-Snow,317
2012-10-31,41,40,38,39,37,35,100,93,85,29.81,29.70,29.60,10,7,2,23,15,29,0.07,8,Rain,291